createdAt,value
2019-04-28T00:02:11.921Z,101067.83
2019-04-28T00:04:41.554Z,101081.21
2019-04-28T00:07:11.920Z,101080.32
2019-04-28T00:09:41.512Z,101075.53
2019-04-28T00:12:11.525Z,101076.38
2019-04-28T00:14:41.848Z,101084.59
2019-04-28T00:17:11.206Z,101085.03
2019-04-28T00:19:41.056Z,101088.03
2019-04-28T00:22:17.045Z,101086.30
2019-04-28T00:24:59.160Z,101083.27
2019-04-28T00:27:27.806Z,101084.57
2019-04-28T00:29:56.285Z,101080.20
2019-04-28T00:32:24.756Z,101081.94
2019-04-28T00:34:53.297Z,101083.21
2019-04-28T00:37:26.524Z,101081.91
2019-04-28T00:39:55.010Z,101087.96
2019-04-28T00:42:23.527Z,101081.02
2019-04-28T00:44:52.008Z,101080.16
2019-04-28T00:47:21.014Z,101082.30
2019-04-28T00:49:51.760Z,101084.89
2019-04-28T00:52:22.147Z,101087.50
2019-04-28T00:54:52.321Z,101094.85
2019-04-28T00:57:21.325Z,101092.66
2019-04-28T00:59:57.705Z,101086.98
2019-04-28T01:02:24.723Z,101084.81
2019-04-28T01:04:53.266Z,101086.12
2019-04-28T01:07:21.768Z,101083.92
2019-04-28T01:09:51.688Z,101089.56
2019-04-28T01:12:21.270Z,101082.19
2019-04-28T01:14:52.233Z,101086.96
2019-04-28T01:17:24.678Z,101097.78
2019-04-28T01:20:10.850Z,101092.55
2019-04-28T01:22:40.369Z,101089.05
2019-04-28T01:25:10.680Z,101093.33
2019-04-28T01:27:41.031Z,101099.80
2019-04-28T01:30:11.542Z,101098.88
2019-04-28T01:32:53.514Z,101095.38
2019-04-28T01:35:22.020Z,101097.92
2019-04-28T01:37:50.642Z,101092.22
2019-04-28T01:40:20.548Z,101094.79
2019-04-28T01:42:49.977Z,101096.06
2019-04-28T01:45:20.439Z,101096.43
2019-04-28T01:47:50.426Z,101104.61
2019-04-28T01:50:20.445Z,101112.34
2019-04-28T01:52:49.680Z,101117.05
2019-04-28T01:55:19.990Z,101116.98
2019-04-28T01:57:49.772Z,101114.30
2019-04-28T02:00:23.128Z,101118.57
2019-04-28T02:02:50.530Z,101112.03
2019-04-28T02:05:19.737Z,101112.42
2019-04-28T02:07:50.494Z,101110.66
2019-04-28T02:10:20.194Z,101104.95
2019-04-28T02:12:50.357Z,101118.81
2019-04-28T02:15:20.191Z,101124.84
2019-04-28T02:17:51.314Z,101120.44
2019-04-28T02:20:20.403Z,101125.59
2019-04-28T02:22:53.359Z,101125.05
2019-04-28T02:25:23.782Z,101125.02
2019-04-28T02:27:52.267Z,101126.70
2019-04-28T02:30:26.533Z,101119.27
2019-04-28T02:32:51.870Z,101122.26
2019-04-28T02:35:21.327Z,101118.31
2019-04-28T02:37:50.557Z,101115.20
2019-04-28T02:40:20.732Z,101119.06
2019-04-28T02:42:51.895Z,101119.02
2019-04-28T02:45:21.722Z,101122.44
2019-04-28T02:47:52.467Z,101116.73
2019-04-28T02:50:22.639Z,101118.84
2019-04-28T02:53:01.392Z,101120.06
2019-04-28T02:55:31.511Z,101120.84
2019-04-28T02:58:01.508Z,101122.02
2019-04-28T03:00:31.697Z,101121.05
2019-04-28T03:03:01.344Z,101120.97
2019-04-28T03:05:30.341Z,101133.47
2019-04-28T03:08:01.028Z,101133.38
2019-04-28T03:10:31.030Z,101141.51
2019-04-28T03:13:01.091Z,101143.62
2019-04-28T03:15:30.386Z,101142.22
2019-04-28T03:18:01.689Z,101146.50
2019-04-28T03:20:30.593Z,101151.69
2019-04-28T03:23:00.909Z,101151.26
2019-04-28T03:25:33.546Z,101148.28
2019-04-28T03:28:21.349Z,101157.85
2019-04-28T03:31:12.980Z,101151.84
2019-04-28T03:33:37.892Z,101154.05
2019-04-28T03:36:07.883Z,101167.95
2019-04-28T03:38:33.474Z,101165.78
2019-04-28T03:41:02.048Z,101166.27
2019-04-28T03:43:30.749Z,101169.30
2019-04-28T03:46:03.802Z,101174.05
2019-04-28T03:48:33.682Z,101169.68
2019-04-28T03:51:02.378Z,101167.91
2019-04-28T03:53:31.304Z,101176.16
2019-04-28T03:56:01.537Z,101176.16
2019-04-28T03:58:31.194Z,101175.30
2019-04-28T04:01:02.818Z,101185.30
2019-04-28T04:03:30.599Z,101178.34
2019-04-28T04:06:00.828Z,101183.14
2019-04-28T04:08:30.898Z,101189.20
2019-04-28T04:11:01.582Z,101188.81
2019-04-28T04:13:51.359Z,101186.66
2019-04-28T04:16:30.937Z,101187.56
2019-04-28T04:19:01.326Z,101184.58
2019-04-28T04:21:31.068Z,101190.26
2019-04-28T04:24:01.080Z,101192.03
2019-04-28T04:26:31.100Z,101202.04
2019-04-28T04:29:01.282Z,101203.81
2019-04-28T04:31:31.736Z,101209.49
2019-04-28T04:34:00.750Z,101213.78
2019-04-28T04:36:31.097Z,101218.58
2019-04-28T04:39:01.778Z,101231.14
2019-04-28T04:41:32.416Z,101226.38
2019-04-28T04:44:01.388Z,101228.16
2019-04-28T04:46:31.346Z,101226.52
2019-04-28T04:49:00.847Z,101219.65
2019-04-28T04:51:30.611Z,101222.30
2019-04-28T04:54:01.029Z,101224.98
2019-04-28T04:56:30.337Z,101233.73
2019-04-28T04:59:02.187Z,101239.80
2019-04-28T05:01:33.504Z,101236.38
2019-04-28T05:04:15.760Z,101241.58
2019-04-28T05:06:44.291Z,101245.05
2019-04-28T05:09:12.840Z,101248.90
2019-04-28T05:11:41.331Z,101255.00
2019-04-28T05:14:12.090Z,101248.50
2019-04-28T05:16:40.552Z,101253.31
2019-04-28T05:19:10.087Z,101258.55
2019-04-28T05:21:40.162Z,101262.03
2019-04-28T05:24:20.102Z,101259.95
2019-04-28T05:26:51.584Z,101256.09
2019-04-28T05:29:26.499Z,101260.56
2019-04-28T05:31:54.844Z,101256.28
2019-04-28T05:34:23.934Z,101257.70
2019-04-28T05:36:51.266Z,101255.23
2019-04-28T05:39:19.924Z,101264.03
2019-04-28T05:41:50.308Z,101264.08
2019-04-28T05:44:20.094Z,101268.94
2019-04-28T05:46:50.660Z,101268.58
2019-04-28T05:49:30.212Z,101268.66
2019-04-28T05:52:06.563Z,101270.91
2019-04-28T05:54:45.781Z,101271.00
2019-04-28T05:57:15.902Z,101272.34
2019-04-28T05:59:50.578Z,101274.11
2019-04-28T06:02:24.000Z,101273.67
2019-04-28T06:04:52.695Z,101279.36
2019-04-28T06:07:22.818Z,101280.70
2019-04-28T06:09:53.003Z,101285.07
2019-04-28T06:12:21.860Z,101285.11
2019-04-28T06:14:50.372Z,101284.32
2019-04-28T06:17:20.629Z,101289.64
2019-04-28T06:19:50.457Z,101286.21
2019-04-28T06:22:19.051Z,101291.05
2019-04-28T06:24:47.559Z,101290.23
2019-04-28T06:27:16.064Z,101289.87
2019-04-28T06:29:44.787Z,101289.11
2019-04-28T06:32:13.313Z,101292.22
2019-04-28T06:34:42.925Z,101292.76
2019-04-28T06:37:11.485Z,101291.09
2019-04-28T06:39:39.997Z,101290.33
2019-04-28T06:42:08.487Z,101291.73
2019-04-28T06:44:37.013Z,101293.53
2019-04-28T06:47:05.608Z,101297.03
2019-04-28T06:49:34.093Z,101302.74
2019-04-28T06:52:02.582Z,101307.58
2019-04-28T06:54:31.098Z,101314.13
2019-04-28T06:56:59.583Z,101320.20
2019-04-28T06:59:28.142Z,101325.45
2019-04-28T07:01:56.671Z,101326.39
2019-04-28T07:04:25.221Z,101328.62
2019-04-28T07:06:53.704Z,101336.13
2019-04-28T07:09:22.310Z,101336.59
2019-04-28T07:11:50.909Z,101336.22
2019-04-28T07:14:19.387Z,101340.56
2019-04-28T07:16:47.901Z,101340.19
2019-04-28T07:19:16.386Z,101340.68
2019-04-28T07:21:46.505Z,101342.48
2019-04-28T07:24:15.128Z,101346.42
2019-04-28T07:26:43.609Z,101352.09
2019-04-28T07:29:12.089Z,101355.19
2019-04-28T07:31:40.621Z,101361.28
2019-04-28T07:34:09.103Z,101369.97
2019-04-28T07:36:38.665Z,101373.45
2019-04-28T07:39:07.651Z,101366.49
2019-04-28T07:41:36.135Z,101373.88
2019-04-28T07:44:04.755Z,101370.87
2019-04-28T07:46:33.303Z,101371.82
2019-04-28T07:49:01.798Z,101373.26
2019-04-28T07:51:31.932Z,101376.89
2019-04-28T07:54:05.053Z,101377.02
2019-04-28T07:56:33.537Z,101381.94
2019-04-28T07:59:02.990Z,101390.34
2019-04-28T08:01:31.573Z,101392.13
2019-04-28T08:04:00.061Z,101400.88
2019-04-28T08:06:28.562Z,101402.22
2019-04-28T08:08:57.091Z,101411.36
2019-04-28T08:11:25.666Z,101408.32
2019-04-28T08:13:54.154Z,101410.94
2019-04-28T08:16:22.856Z,101419.66
2019-04-28T08:18:51.351Z,101424.05
2019-04-28T08:21:19.841Z,101419.72
2019-04-28T08:23:48.368Z,101416.25
2019-04-28T08:26:16.845Z,101409.72
2019-04-28T08:28:45.331Z,101408.41
2019-04-28T08:31:15.524Z,101411.48
2019-04-28T08:34:02.227Z,101418.05
2019-04-28T08:36:24.412Z,101418.94
2019-04-28T08:38:52.918Z,101430.28
2019-04-28T08:41:21.412Z,101424.20
2019-04-28T08:43:49.956Z,101421.13
2019-04-28T08:46:19.104Z,101434.62
2019-04-28T08:48:48.289Z,101435.91
2019-04-28T08:51:16.894Z,101438.94
2019-04-28T08:53:45.374Z,101436.73
2019-04-28T08:56:13.866Z,101443.64
2019-04-28T08:58:42.383Z,101447.11
2019-04-28T09:01:10.878Z,101448.82
2019-04-28T09:03:39.363Z,101453.62
2019-04-28T09:06:07.990Z,101456.23
2019-04-28T09:08:36.471Z,101461.45
2019-04-28T09:11:04.961Z,101458.40
2019-04-28T09:13:33.490Z,101460.59
2019-04-28T09:16:01.981Z,101461.93
2019-04-28T09:18:30.463Z,101462.81
2019-04-28T09:20:59.058Z,101467.66
2019-04-28T09:23:27.524Z,101468.97
2019-04-28T09:25:56.012Z,101473.38
2019-04-28T09:28:24.525Z,101471.66
2019-04-28T09:30:53.018Z,101474.24
2019-04-28T09:33:23.211Z,101473.78
2019-04-28T09:35:51.732Z,101478.55
2019-04-28T09:38:20.209Z,101481.61
2019-04-28T09:40:48.679Z,101480.71
2019-04-28T09:43:24.634Z,101488.11
2019-04-28T09:45:57.676Z,101487.69
2019-04-28T09:48:26.151Z,101488.97
2019-04-28T09:50:54.754Z,101495.03
2019-04-28T09:53:25.024Z,101493.70
2019-04-28T09:55:53.519Z,101496.73
2019-04-28T09:58:22.042Z,101499.78
2019-04-28T10:00:50.525Z,101499.30
2019-04-28T10:03:19.072Z,101501.48
2019-04-28T10:05:47.611Z,101502.73
2019-04-28T10:08:16.239Z,101515.33
2019-04-28T10:10:44.725Z,101517.05
2019-04-28T10:13:13.231Z,101518.33
2019-04-28T10:15:41.790Z,101523.50
2019-04-28T10:18:10.273Z,101529.07
2019-04-28T10:20:38.858Z,101525.47
2019-04-28T10:23:07.357Z,101532.37
2019-04-28T10:25:35.844Z,101545.83
2019-04-28T10:28:04.364Z,101538.37
2019-04-28T10:30:32.846Z,101550.06
2019-04-28T10:33:01.336Z,101550.44
2019-04-28T10:35:29.900Z,101555.99
2019-04-28T10:37:58.386Z,101552.45
2019-04-28T10:40:36.947Z,101558.91
2019-04-28T10:43:05.572Z,101561.44
2019-04-28T10:45:44.626Z,101564.48
2019-04-28T10:48:13.232Z,101567.53
2019-04-28T10:50:41.727Z,101568.40
2019-04-28T10:53:10.249Z,101571.91
2019-04-28T10:55:38.819Z,101580.71
2019-04-28T10:58:07.373Z,101576.87
2019-04-28T11:00:37.556Z,101574.39
2019-04-28T11:03:06.052Z,101577.09
2019-04-28T11:05:36.350Z,101574.14
2019-04-28T11:08:06.579Z,101572.59
2019-04-28T11:10:35.130Z,101581.81
2019-04-28T11:13:03.850Z,101584.55
2019-04-28T11:15:34.036Z,101582.04
2019-04-28T11:18:03.420Z,101586.09
2019-04-28T11:20:32.656Z,101590.96
2019-04-28T11:23:01.162Z,101592.29
2019-04-28T11:25:29.648Z,101591.44
2019-04-28T11:27:58.257Z,101601.48
2019-04-28T11:30:28.256Z,101594.06
2019-04-28T11:33:14.779Z,101597.97
2019-04-28T11:35:44.667Z,101604.11
2019-04-28T11:38:13.158Z,101602.81
2019-04-28T11:40:41.701Z,101608.56
2019-04-28T11:43:10.316Z,101618.57
2019-04-28T11:45:38.800Z,101615.55
2019-04-28T11:48:07.356Z,101614.22
2019-04-28T11:50:35.888Z,101622.03
2019-04-28T11:53:04.383Z,101618.09
2019-04-28T11:55:32.868Z,101620.23
2019-04-28T11:58:01.376Z,101625.47
2019-04-28T12:00:31.507Z,101624.98
2019-04-28T12:03:00.010Z,101624.08
2019-04-28T12:05:42.197Z,101622.31
2019-04-28T12:08:10.744Z,101624.95
2019-04-28T12:10:40.938Z,101629.31
2019-04-28T12:13:17.051Z,101623.23
2019-04-28T12:15:53.162Z,101622.41
2019-04-28T12:18:23.339Z,101623.36
2019-04-28T12:20:51.815Z,101625.16
2019-04-28T12:23:20.305Z,101620.39
2019-04-28T12:25:48.820Z,101621.75
2019-04-28T12:28:17.308Z,101622.20
2019-04-28T12:30:45.784Z,101633.53
2019-04-28T12:33:14.293Z,101624.38
2019-04-28T12:35:47.969Z,101622.25
2019-04-28T12:38:13.176Z,101629.29
2019-04-28T12:40:41.695Z,101631.97
2019-04-28T12:43:10.166Z,101634.22
2019-04-28T12:45:38.640Z,101638.57
2019-04-28T12:48:07.260Z,101636.39
2019-04-28T12:50:40.338Z,101642.03
2019-04-28T12:53:08.817Z,101645.96
2019-04-28T12:55:37.423Z,101644.61
2019-04-28T12:58:05.969Z,101647.64
2019-04-28T13:00:51.237Z,101647.59
2019-04-28T13:03:25.048Z,101645.39
2019-04-28T13:06:02.475Z,101648.03
2019-04-28T13:08:25.388Z,101649.38
2019-04-28T13:10:53.877Z,101653.83
2019-04-28T13:13:22.365Z,101650.84
2019-04-28T13:15:50.880Z,101650.05
2019-04-28T13:18:19.361Z,101654.03
2019-04-28T13:20:47.929Z,101654.09
2019-04-28T13:23:16.455Z,101659.77
2019-04-28T13:25:44.951Z,101658.50
2019-04-28T13:28:13.424Z,101658.07
2019-04-28T13:30:42.017Z,101655.85
2019-04-28T13:33:10.485Z,101659.30
2019-04-28T13:35:39.100Z,101655.34
2019-04-28T13:38:07.590Z,101656.17
2019-04-28T13:40:38.877Z,101664.89
2019-04-28T13:43:07.427Z,101662.25
2019-04-28T13:45:37.097Z,101657.91
2019-04-28T13:48:05.643Z,101660.13
2019-04-28T13:50:38.110Z,101660.61
2019-04-28T13:53:07.667Z,101665.47
2019-04-28T13:55:43.754Z,101662.88
2019-04-28T13:58:12.276Z,101660.70
2019-04-28T14:00:54.415Z,101664.20
2019-04-28T14:03:40.739Z,101667.66
2019-04-28T14:06:10.926Z,101661.12
2019-04-28T14:08:39.418Z,101663.27
2019-04-28T14:11:07.954Z,101668.03
2019-04-28T14:13:36.444Z,101668.38
2019-04-28T14:16:05.185Z,101667.81
2019-04-28T14:18:33.664Z,101670.38
2019-04-28T14:21:02.184Z,101670.71
2019-04-28T14:23:30.666Z,101677.64
2019-04-28T14:25:59.193Z,101678.02
2019-04-28T14:28:27.690Z,101684.53
2019-04-28T14:30:56.186Z,101682.79
2019-04-28T14:33:24.673Z,101682.82
2019-04-28T14:35:54.485Z,101676.72
2019-04-28T14:38:27.486Z,101685.48
2019-04-28T14:40:58.034Z,101689.00
2019-04-28T14:43:29.749Z,101692.09
2019-04-28T14:45:58.296Z,101695.17
2019-04-28T14:48:26.735Z,101698.27
2019-04-28T14:50:55.279Z,101694.78
2019-04-28T14:53:23.749Z,101698.75
2019-04-28T14:55:52.224Z,101706.70
2019-04-28T14:58:20.731Z,101702.77
2019-04-28T15:01:02.870Z,101706.27
2019-04-28T15:03:33.021Z,101705.77
2019-04-28T15:06:03.157Z,101710.94
2019-04-28T15:08:49.795Z,101713.42
2019-04-28T15:11:25.805Z,101708.05
2019-04-28T15:13:55.472Z,101718.80
2019-04-28T15:16:24.187Z,101718.71
2019-04-28T15:18:52.664Z,101726.02
2019-04-28T15:21:21.211Z,101725.53
2019-04-28T15:23:49.694Z,101732.00
2019-04-28T15:26:18.403Z,101734.05
2019-04-28T15:28:46.916Z,101732.64
2019-04-28T15:31:15.415Z,101731.27
2019-04-28T15:33:43.909Z,101734.65
2019-04-28T15:36:12.567Z,101736.32
2019-04-28T15:38:41.071Z,101733.23
2019-04-28T15:41:20.899Z,101734.91
2019-04-28T15:43:39.832Z,101737.88
2019-04-28T15:46:08.579Z,101737.77
2019-04-28T15:48:37.070Z,101739.91
2019-04-28T15:51:05.626Z,101738.13
2019-04-28T15:53:35.756Z,101738.56
2019-04-28T15:56:11.892Z,101740.73
2019-04-28T15:58:40.377Z,101737.66
2019-04-28T16:01:08.934Z,101734.58
2019-04-28T16:03:37.467Z,101736.71
2019-04-28T16:06:05.966Z,101732.80
2019-04-28T16:08:34.513Z,101735.37
2019-04-28T16:11:03.070Z,101729.28
2019-04-28T16:13:31.569Z,101734.06
2019-04-28T16:16:00.069Z,101732.28
2019-04-28T16:18:28.569Z,101733.59
2019-04-28T16:20:57.055Z,101723.55
2019-04-28T16:23:25.620Z,101723.15
2019-04-28T16:25:54.139Z,101722.79
2019-04-28T16:28:22.634Z,101724.53
2019-04-28T16:30:51.101Z,101724.09
2019-04-28T16:33:23.763Z,101720.97
2019-04-28T16:35:52.218Z,101728.30
2019-04-28T16:38:20.702Z,101729.13
2019-04-28T16:40:49.222Z,101728.64
2019-04-28T16:43:17.874Z,101734.70
2019-04-28T16:45:46.341Z,101737.70
2019-04-28T16:48:16.142Z,101739.44
2019-04-28T16:50:44.637Z,101745.05
2019-04-28T16:53:13.130Z,101744.58
2019-04-28T16:55:46.447Z,101746.31
2019-04-28T16:58:16.588Z,101748.45
2019-04-28T17:00:59.402Z,101743.62
2019-04-28T17:03:31.764Z,101739.23
2019-04-28T17:06:00.248Z,101747.45
2019-04-28T17:08:29.419Z,101752.16
2019-04-28T17:11:02.613Z,101747.75
2019-04-28T17:13:32.197Z,101751.11
2019-04-28T17:16:00.777Z,101754.05
2019-04-28T17:18:29.260Z,101760.92
2019-04-28T17:20:57.738Z,101769.96
2019-04-28T17:23:26.262Z,101764.70
2019-04-28T17:25:54.757Z,101770.73
2019-04-28T17:28:23.238Z,101772.42
2019-04-28T17:30:51.767Z,101770.63
2019-04-28T17:33:20.265Z,101770.98
2019-04-28T17:35:48.903Z,101775.70
2019-04-28T17:38:17.435Z,101777.78
2019-04-28T17:40:46.091Z,101776.42
2019-04-28T17:43:14.601Z,101778.06
2019-04-28T17:45:43.184Z,101783.22
2019-04-28T17:48:16.389Z,101780.95
2019-04-28T17:50:45.523Z,101784.72
2019-04-28T17:53:13.990Z,101796.30
2019-04-28T17:55:42.476Z,101793.19
2019-04-28T17:58:10.998Z,101793.53
2019-04-28T18:00:43.881Z,101796.52
2019-04-28T18:03:13.969Z,101799.13
2019-04-28T18:05:44.137Z,101802.16
2019-04-28T18:08:20.993Z,101801.19
2019-04-28T18:10:42.819Z,101802.42
2019-04-28T18:13:11.520Z,101805.84
2019-04-28T18:15:58.133Z,101800.53
2019-04-28T18:18:31.158Z,101803.09
2019-04-28T18:20:59.651Z,101797.81
2019-04-28T18:23:28.120Z,101809.52
2019-04-28T18:25:56.710Z,101805.08
2019-04-28T18:28:25.377Z,101802.84
2019-04-28T18:30:55.494Z,101812.34
2019-04-28T18:33:25.655Z,101820.47
2019-04-28T18:35:55.767Z,101822.16
2019-04-28T18:38:34.664Z,101827.84
2019-04-28T18:41:09.743Z,101835.17
2019-04-28T18:43:45.688Z,101834.73
2019-04-28T18:46:17.197Z,101837.33
2019-04-28T18:48:45.794Z,101840.86
2019-04-28T18:51:14.498Z,101840.86
2019-04-28T18:53:44.600Z,101845.57
2019-04-28T18:56:13.296Z,101847.68
2019-04-28T18:58:41.788Z,101851.53
2019-04-28T19:01:11.951Z,101851.53
2019-04-28T19:03:40.427Z,101856.80
2019-04-28T19:06:08.997Z,101852.08
2019-04-28T19:08:48.985Z,101855.11
2019-04-28T19:11:16.832Z,101852.89
2019-04-28T19:13:49.957Z,101857.13
2019-04-28T19:16:36.485Z,101854.44
2019-04-28T19:19:06.736Z,101853.89
2019-04-28T19:21:35.230Z,101857.72
2019-04-28T19:24:03.839Z,101865.84
2019-04-28T19:26:32.369Z,101863.11
2019-04-28T19:29:00.854Z,101867.34
2019-04-28T19:31:29.426Z,101864.59
2019-04-28T19:33:57.961Z,101870.05
2019-04-28T19:36:26.451Z,101870.28
2019-04-28T19:39:03.022Z,101875.33
2019-04-28T19:41:25.204Z,101869.93
2019-04-28T19:43:53.682Z,101880.14
2019-04-28T19:46:22.237Z,101876.46
2019-04-28T19:48:50.772Z,101885.39
2019-04-28T19:51:31.192Z,101890.45
2019-04-28T19:53:50.118Z,101888.58
2019-04-28T19:56:26.066Z,101892.77
2019-04-28T19:58:56.169Z,101895.67
2019-04-28T20:01:26.389Z,101902.57
2019-04-28T20:03:54.926Z,101898.61
2019-04-28T20:06:23.478Z,101905.11
2019-04-28T20:08:51.963Z,101899.91
2019-04-28T20:11:20.483Z,101906.86
2019-04-28T20:13:48.977Z,101904.27
2019-04-28T20:16:17.472Z,101901.58
2019-04-28T20:18:48.733Z,101902.74
2019-04-28T20:21:16.213Z,101911.81
2019-04-28T20:23:44.855Z,101915.63
2019-04-28T20:26:13.414Z,101911.30
2019-04-28T20:28:41.896Z,101925.67
2019-04-28T20:31:10.376Z,101909.66
2019-04-28T20:33:38.961Z,101910.59
2019-04-28T20:36:11.572Z,101911.52
2019-04-28T20:38:40.057Z,101914.13
2019-04-28T20:41:10.216Z,101909.80
2019-04-28T20:43:38.742Z,101911.47
2019-04-28T20:46:07.214Z,101911.95
2019-04-28T20:48:35.734Z,101920.14
2019-04-28T20:51:04.216Z,101921.95
2019-04-28T20:53:32.935Z,101926.75
2019-04-28T20:56:01.456Z,101920.70
2019-04-28T20:58:29.927Z,101917.23
2019-04-28T21:00:58.425Z,101919.41
2019-04-28T21:03:26.957Z,101924.66
2019-04-28T21:05:55.519Z,101915.51
2019-04-28T21:08:24.013Z,101915.95
2019-04-28T21:10:52.538Z,101912.91
2019-04-28T21:13:21.031Z,101916.44
2019-04-28T21:15:49.515Z,101914.72
2019-04-28T21:18:18.040Z,101911.67
2019-04-28T21:20:46.520Z,101909.45
2019-04-28T21:23:15.022Z,101906.35
2019-04-28T21:25:43.529Z,101908.93
2019-04-28T21:28:12.011Z,101906.25
2019-04-28T21:30:40.577Z,101899.75
2019-04-28T21:33:09.161Z,101906.64
2019-04-28T21:35:37.659Z,101900.56
2019-04-28T21:38:06.201Z,101899.24
2019-04-28T21:40:34.729Z,101897.01
2019-04-28T21:43:17.117Z,101897.80
2019-04-28T21:45:52.943Z,101901.64
2019-04-28T21:48:37.964Z,101891.19
2019-04-28T21:51:06.581Z,101895.51
2019-04-28T21:53:35.063Z,101900.26
2019-04-28T21:56:04.723Z,101895.88
2019-04-28T21:58:33.812Z,101900.68
2019-04-28T22:01:02.716Z,101896.30
2019-04-28T22:03:31.211Z,101894.07
2019-04-28T22:05:59.722Z,101900.56
2019-04-28T22:08:28.283Z,101898.02
2019-04-28T22:10:56.821Z,101896.73
2019-04-28T22:13:25.411Z,101893.68
2019-04-28T22:15:53.896Z,101898.90
2019-04-28T22:18:22.763Z,101902.80
2019-04-28T22:20:51.293Z,101893.28
2019-04-28T22:23:36.122Z,101896.30
2019-04-28T22:26:04.669Z,101895.85
2019-04-28T22:28:33.163Z,101889.30
2019-04-28T22:31:01.655Z,101889.30
2019-04-28T22:33:30.180Z,101887.58
2019-04-28T22:35:58.697Z,101888.88
2019-04-28T22:38:27.178Z,101881.98
2019-04-28T22:40:55.716Z,101884.16
2019-04-28T22:43:24.205Z,101881.14
2019-04-28T22:45:52.696Z,101871.98
2019-04-28T22:48:22.928Z,101874.13
2019-04-28T22:50:54.327Z,101881.56
2019-04-28T22:53:24.630Z,101888.06
2019-04-28T22:55:54.796Z,101881.98
2019-04-28T22:58:30.797Z,101884.61
2019-04-28T23:01:01.081Z,101886.33
2019-04-28T23:03:33.660Z,101884.19
2019-04-28T23:06:02.165Z,101876.00
2019-04-28T23:08:30.702Z,101887.27
2019-04-28T23:10:59.193Z,101875.15
2019-04-28T23:13:27.679Z,101874.78
2019-04-28T23:15:56.210Z,101874.30
2019-04-28T23:18:24.770Z,101872.19
2019-04-28T23:20:54.952Z,101870.88
2019-04-28T23:23:23.492Z,101868.29
2019-04-28T23:25:51.977Z,101870.02
2019-04-28T23:28:20.481Z,101872.63
2019-04-28T23:30:49.013Z,101875.66
2019-04-28T23:33:17.573Z,101869.59
2019-04-28T23:35:46.060Z,101871.25
2019-04-28T23:38:14.593Z,101870.02
2019-04-28T23:40:44.733Z,101865.61
2019-04-28T23:43:18.011Z,101870.32
2019-04-28T23:45:46.612Z,101863.40
2019-04-28T23:48:15.171Z,101864.81
2019-04-28T23:51:03.139Z,101862.66
2019-04-28T23:53:49.675Z,101854.14
2019-04-28T23:56:18.269Z,101855.01
2019-04-28T23:58:47.882Z,101848.88
